createdAt,value
2018-10-19T00:02:09.022Z,11.63
2018-10-19T00:04:38.808Z,11.55
2018-10-19T00:07:08.599Z,11.50
2018-10-19T00:09:38.366Z,11.48
2018-10-19T00:12:08.822Z,11.46
2018-10-19T00:14:38.559Z,11.35
2018-10-19T00:17:08.415Z,11.38
2018-10-19T00:19:38.957Z,11.39
2018-10-19T00:22:08.760Z,11.27
2018-10-19T00:24:38.542Z,11.44
2018-10-19T00:27:08.322Z,11.40
2018-10-19T00:29:38.256Z,11.37
2018-10-19T00:32:08.124Z,11.39
2018-10-19T00:34:37.923Z,11.42
2018-10-19T00:37:07.854Z,11.42
2018-10-19T00:39:37.609Z,11.22
2018-10-19T00:42:07.765Z,11.17
2018-10-19T00:44:37.556Z,11.00
2018-10-19T00:47:07.734Z,10.96
2018-10-19T00:49:37.926Z,10.97
2018-10-19T00:52:07.776Z,11.06
2018-10-19T00:54:37.548Z,10.98
2018-10-19T00:57:07.456Z,10.92
2018-10-19T00:59:37.439Z,10.94
2018-10-19T01:02:07.393Z,10.95
2018-10-19T01:04:37.186Z,10.89
2018-10-19T01:07:07.016Z,10.76
2018-10-19T01:09:36.838Z,10.78
2018-10-19T01:12:07.224Z,10.73
2018-10-19T01:14:36.975Z,10.76
2018-10-19T01:17:06.885Z,10.69
2018-10-19T01:19:36.894Z,10.82
2018-10-19T01:22:06.963Z,10.91
2018-10-19T01:24:36.760Z,10.87
2018-10-19T01:27:07.082Z,10.81
2018-10-19T01:29:37.043Z,10.85
2018-10-19T01:32:07.793Z,11.00
2018-10-19T01:34:37.700Z,10.83
2018-10-19T01:37:07.491Z,10.56
2018-10-19T01:39:37.286Z,10.49
2018-10-19T01:42:07.732Z,10.56
2018-10-19T01:44:37.543Z,10.44
2018-10-19T01:47:07.394Z,10.52
2018-10-19T01:49:37.289Z,10.58
2018-10-19T01:52:07.415Z,10.68
2018-10-19T01:54:37.257Z,10.61
2018-10-19T01:57:07.124Z,10.66
2018-10-19T01:59:37.040Z,10.58
2018-10-19T02:02:07.418Z,10.56
2018-10-19T02:04:37.216Z,10.52
2018-10-19T02:07:07.386Z,10.55
2018-10-19T02:09:37.152Z,10.51
2018-10-19T02:12:07.360Z,10.63
2018-10-19T02:14:37.436Z,10.55
2018-10-19T02:17:08.152Z,10.61
2018-10-19T02:19:38.272Z,10.51
2018-10-19T02:22:08.298Z,10.51
2018-10-19T02:24:38.084Z,10.52
2018-10-19T02:27:08.475Z,10.47
2018-10-19T02:29:38.668Z,10.46
2018-10-19T02:32:09.139Z,10.44
2018-10-19T02:34:38.902Z,10.57
2018-10-19T02:37:08.901Z,10.41
2018-10-19T02:39:38.738Z,10.33
2018-10-19T02:42:08.822Z,10.41
2018-10-19T02:44:38.610Z,10.37
2018-10-19T02:47:08.445Z,10.32
2018-10-19T02:49:38.382Z,10.47
2018-10-19T02:52:08.183Z,10.51
2018-10-19T02:54:37.936Z,10.34
2018-10-19T02:57:08.009Z,10.11
2018-10-19T02:59:37.968Z,10.02
2018-10-19T03:02:08.069Z,10.06
2018-10-19T03:04:38.247Z,10.08
2018-10-19T03:07:08.493Z,10.06
2018-10-19T03:09:38.319Z,10.18
2018-10-19T03:12:08.347Z,10.15
2018-10-19T03:16:07.511Z,10.10
2018-10-19T03:18:37.314Z,9.98
2018-10-19T03:21:07.410Z,9.98
2018-10-19T03:23:37.351Z,9.93
2018-10-19T03:26:08.909Z,9.93
2018-10-19T03:28:38.694Z,9.93
2018-10-19T03:31:08.492Z,9.89
2018-10-19T03:33:38.413Z,9.90
2018-10-19T03:36:08.458Z,9.86
2018-10-19T03:38:38.240Z,9.82
2018-10-19T03:41:08.340Z,9.86
2018-10-19T03:43:38.336Z,9.84
2018-10-19T03:46:08.243Z,9.89
2018-10-19T03:48:38.207Z,9.98
2018-10-19T03:51:08.194Z,10.01
2018-10-19T03:53:38.152Z,9.94
2018-10-19T03:56:07.947Z,9.80
2018-10-19T03:58:37.720Z,9.89
2018-10-19T04:01:07.907Z,9.83
2018-10-19T04:03:37.695Z,9.93
2018-10-19T04:06:07.635Z,9.93
2018-10-19T04:08:37.407Z,9.76
2018-10-19T04:11:07.501Z,9.63
2018-10-19T04:13:37.397Z,9.64
2018-10-19T04:16:07.185Z,9.62
2018-10-19T04:18:36.979Z,9.62
2018-10-19T04:21:06.820Z,9.55
2018-10-19T04:23:36.873Z,9.59
2018-10-19T04:26:07.506Z,9.56
2018-10-19T04:28:37.289Z,9.51
2018-10-19T04:31:07.057Z,9.49
2018-10-19T04:33:36.852Z,9.44
2018-10-19T04:36:07.353Z,9.44
2018-10-19T04:38:37.131Z,9.40
2018-10-19T04:41:07.379Z,9.42
2018-10-19T04:43:37.298Z,9.40
2018-10-19T04:46:07.603Z,9.34
2018-10-19T04:48:37.359Z,9.35
2018-10-19T04:51:07.796Z,9.52
2018-10-19T04:53:37.692Z,9.50
2018-10-19T04:56:07.697Z,9.54
2018-10-19T04:58:37.416Z,9.62
2018-10-19T05:01:07.553Z,9.65
2018-10-19T05:03:37.293Z,9.75
2018-10-19T05:06:07.535Z,9.71
2018-10-19T05:08:37.360Z,9.66
2018-10-19T05:11:07.269Z,9.68
2018-10-19T05:13:37.230Z,9.71
2018-10-19T05:16:07.025Z,9.76
2018-10-19T05:18:36.788Z,9.89
2018-10-19T05:21:06.937Z,9.95
2018-10-19T05:23:36.725Z,10.09
2018-10-19T05:26:07.099Z,10.08
2018-10-19T05:28:37.005Z,10.13
2018-10-19T05:31:06.830Z,10.10
2018-10-19T05:33:36.611Z,10.10
2018-10-19T05:36:06.933Z,10.05
2018-10-19T05:38:36.678Z,10.08
2018-10-19T05:41:06.584Z,10.11
2018-10-19T05:43:36.519Z,10.13
2018-10-19T05:46:06.519Z,10.18
2018-10-19T05:48:36.492Z,10.16
2018-10-19T05:51:06.730Z,10.16
2018-10-19T05:53:36.685Z,10.13
2018-10-19T05:56:07.673Z,10.16
2018-10-19T05:58:37.971Z,10.15
2018-10-19T06:01:07.801Z,10.11
2018-10-19T06:03:37.585Z,10.06
2018-10-19T06:06:07.358Z,10.08
2018-10-19T06:08:37.146Z,10.08
2018-10-19T06:11:07.365Z,10.05
2018-10-19T06:13:37.436Z,10.12
2018-10-19T06:16:07.792Z,9.89
2018-10-19T06:18:37.565Z,9.90
2018-10-19T06:21:07.330Z,9.79
2018-10-19T06:23:37.240Z,9.80
2018-10-19T06:26:07.334Z,9.84
2018-10-19T06:28:37.179Z,9.83
2018-10-19T06:31:06.988Z,9.86
2018-10-19T06:33:36.798Z,9.81
2018-10-19T06:36:06.816Z,9.78
2018-10-19T06:38:36.600Z,9.84
2018-10-19T06:41:06.824Z,9.86
2018-10-19T06:43:36.721Z,9.82
2018-10-19T06:46:07.262Z,9.84
2018-10-19T06:48:37.145Z,9.83
2018-10-19T06:51:07.079Z,9.92
2018-10-19T06:53:37.036Z,9.91
2018-10-19T06:56:06.826Z,9.92
2018-10-19T06:58:36.876Z,9.98
2018-10-19T07:01:06.883Z,10.00
2018-10-19T07:03:36.666Z,10.00
2018-10-19T07:06:06.869Z,10.03
2018-10-19T07:08:36.830Z,9.98
2018-10-19T07:11:07.067Z,10.01
2018-10-19T07:13:36.956Z,9.87
2018-10-19T07:16:06.859Z,10.01
2018-10-19T07:18:36.706Z,10.03
2018-10-19T07:21:07.313Z,10.05
2018-10-19T07:23:37.091Z,10.07
2018-10-19T07:26:07.975Z,10.06
2018-10-19T07:28:37.858Z,10.00
2018-10-19T07:31:07.630Z,10.08
2018-10-19T07:33:37.430Z,10.05
2018-10-19T07:36:07.496Z,10.20
2018-10-19T07:38:37.309Z,10.28
2018-10-19T07:41:06.909Z,10.42
2018-10-19T07:43:36.851Z,10.37
2018-10-19T07:46:06.724Z,10.49
2018-10-19T07:48:36.586Z,10.52
2018-10-19T07:51:07.095Z,10.67
2018-10-19T07:53:36.957Z,10.73
2018-10-19T07:56:07.658Z,10.76
2018-10-19T07:58:37.663Z,10.90
2018-10-19T08:01:07.662Z,10.89
2018-10-19T08:03:37.597Z,10.68
2018-10-19T08:06:07.398Z,10.81
2018-10-19T08:08:37.204Z,10.96
2018-10-19T08:11:07.807Z,11.16
2018-10-19T08:13:37.710Z,11.43
2018-10-19T08:16:07.504Z,11.21
2018-10-19T08:18:37.295Z,11.15
2018-10-19T08:21:07.704Z,11.07
2018-10-19T08:23:37.702Z,11.27
2018-10-19T08:26:07.598Z,11.34
2018-10-19T08:28:37.487Z,11.24
2018-10-19T08:31:07.660Z,11.37
2018-10-19T08:33:37.431Z,11.56
2018-10-19T08:36:07.966Z,11.71
2018-10-19T08:38:37.730Z,11.64
2018-10-19T08:41:07.585Z,11.72
2018-10-19T08:43:37.491Z,11.74
2018-10-19T08:46:12.943Z,11.55
2018-10-19T08:48:42.698Z,11.70
2018-10-19T08:51:12.582Z,11.59
2018-10-19T08:53:42.545Z,11.48
2018-10-19T08:56:12.499Z,11.44
2018-10-19T08:58:43.220Z,11.51
2018-10-19T09:01:13.017Z,11.51
2018-10-19T09:03:42.794Z,11.52
2018-10-19T09:06:12.596Z,11.66
2018-10-19T09:08:42.563Z,11.78
2018-10-19T09:11:12.603Z,11.85
2018-10-19T09:13:42.548Z,11.74
2018-10-19T09:16:12.482Z,11.62
2018-10-19T09:18:42.288Z,11.55
2018-10-19T09:21:12.302Z,11.58
2018-10-19T09:23:42.161Z,11.81
2018-10-19T09:26:11.925Z,11.88
2018-10-19T09:28:41.729Z,11.86
2018-10-19T09:31:11.518Z,11.82
2018-10-19T09:33:41.304Z,11.86
2018-10-19T09:36:11.201Z,11.81
2018-10-19T09:38:41.049Z,11.96
2018-10-19T09:41:10.832Z,12.06
2018-10-19T09:43:40.787Z,12.19
2018-10-19T09:46:10.525Z,12.14
2018-10-19T09:48:40.288Z,12.10
2018-10-19T09:51:10.126Z,12.16
2018-10-19T09:53:40.045Z,12.15
2018-10-19T09:56:09.863Z,12.26
2018-10-19T09:58:40.401Z,12.32
2018-10-19T10:01:15.228Z,12.25
2018-10-19T10:03:45.195Z,12.26
2018-10-19T10:06:14.993Z,12.39
2018-10-19T10:08:44.931Z,12.25
2018-10-19T10:11:14.746Z,12.24
2018-10-19T10:13:44.736Z,12.22
2018-10-19T10:16:14.483Z,12.33
2018-10-19T10:18:44.264Z,12.38
2018-10-19T10:21:14.164Z,12.43
2018-10-19T10:23:44.407Z,12.23
2018-10-19T10:26:14.668Z,12.35
2018-10-19T10:28:44.459Z,12.46
2018-10-19T10:31:14.351Z,12.51
2018-10-19T10:33:44.208Z,12.42
2018-10-19T10:36:13.930Z,12.57
2018-10-19T10:38:43.740Z,12.57
2018-10-19T10:41:13.640Z,12.56
2018-10-19T10:43:43.573Z,12.48
2018-10-19T10:46:13.449Z,12.57
2018-10-19T10:48:43.280Z,12.63
2018-10-19T10:51:13.027Z,12.74
2018-10-19T10:53:42.770Z,12.72
2018-10-19T10:56:12.552Z,12.82
2018-10-19T10:58:42.311Z,12.84
2018-10-19T11:01:12.501Z,12.84
2018-10-19T11:03:42.243Z,13.02
2018-10-19T11:06:12.052Z,13.18
2018-10-19T11:08:41.843Z,13.17
2018-10-19T11:11:13.305Z,13.19
2018-10-19T11:13:43.917Z,13.27
2018-10-19T11:16:14.560Z,13.30
2018-10-19T11:18:44.440Z,13.31
2018-10-19T11:21:14.206Z,13.45
2018-10-19T11:23:44.114Z,13.56
2018-10-19T11:26:13.897Z,13.45
2018-10-19T11:28:43.721Z,13.55
2018-10-19T11:31:13.567Z,13.59
2018-10-19T11:33:43.466Z,13.66
2018-10-19T11:36:13.486Z,13.84
2018-10-19T11:38:43.334Z,14.02
2018-10-19T11:41:13.091Z,13.92
2018-10-19T11:43:42.850Z,13.93
2018-10-19T11:46:12.855Z,13.75
2018-10-19T11:48:42.660Z,14.13
2018-10-19T11:51:12.620Z,14.06
2018-10-19T11:53:42.406Z,14.32
2018-10-19T11:56:12.198Z,14.47
2018-10-19T11:58:41.974Z,14.43
2018-10-19T12:01:11.802Z,14.67
2018-10-19T12:03:41.781Z,14.34
2018-10-19T12:06:11.811Z,14.28
2018-10-19T12:08:41.740Z,14.50
2018-10-19T12:11:11.593Z,14.64
2018-10-19T12:13:41.391Z,14.81
2018-10-19T12:16:11.266Z,14.81
2018-10-19T12:18:41.284Z,14.82
2018-10-19T12:21:11.032Z,14.66
2018-10-19T12:23:40.796Z,14.87
2018-10-19T12:26:10.770Z,14.66
2018-10-19T12:28:40.612Z,14.76
2018-10-19T12:31:10.440Z,14.87
2018-10-19T12:33:40.396Z,14.86
2018-10-19T12:36:10.509Z,14.87
2018-10-19T12:38:40.284Z,14.98
2018-10-19T12:41:10.300Z,14.97
2018-10-19T12:43:40.256Z,15.01
2018-10-19T12:46:29.983Z,15.15
2018-10-19T12:48:59.905Z,15.08
2018-10-19T12:51:29.908Z,14.95
2018-10-19T12:53:59.790Z,15.13
2018-10-19T12:56:29.682Z,15.27
2018-10-19T12:58:59.505Z,15.30
2018-10-19T13:01:30.122Z,15.56
2018-10-19T13:04:00.452Z,15.68
2018-10-19T13:06:30.258Z,15.66
2018-10-19T13:09:00.076Z,15.51
2018-10-19T13:11:29.877Z,15.45
2018-10-19T13:13:59.684Z,15.50
2018-10-19T13:16:29.470Z,15.55
2018-10-19T13:18:59.270Z,15.49
2018-10-19T13:21:29.251Z,15.42
2018-10-19T13:23:59.121Z,15.55
2018-10-19T13:26:29.076Z,15.50
2018-10-19T13:28:58.858Z,15.37
2018-10-19T13:31:28.676Z,15.39
2018-10-19T13:33:58.678Z,15.34
2018-10-19T13:36:28.462Z,15.34
2018-10-19T13:38:58.379Z,15.31
2018-10-19T13:41:28.393Z,15.34
2018-10-19T13:43:58.322Z,15.46
2018-10-19T13:46:28.247Z,15.42
2018-10-19T13:48:58.005Z,15.50
2018-10-19T13:51:27.799Z,15.47
2018-10-19T13:53:57.621Z,15.58
2018-10-19T13:56:27.423Z,15.62
2018-10-19T13:58:57.263Z,15.62
2018-10-19T14:01:27.213Z,15.56
2018-10-19T14:03:56.994Z,15.58
2018-10-19T14:06:26.797Z,15.63
2018-10-19T14:08:56.649Z,15.74
2018-10-19T14:11:26.598Z,15.76
2018-10-19T14:13:56.368Z,15.77
2018-10-19T14:16:26.185Z,15.84
2018-10-19T14:18:55.993Z,15.83
2018-10-19T14:21:26.131Z,15.68
2018-10-19T14:23:55.926Z,15.74
2018-10-19T14:26:25.666Z,15.82
2018-10-19T14:28:55.525Z,15.70
2018-10-19T14:31:25.451Z,15.74
2018-10-19T14:33:55.223Z,15.71
2018-10-19T14:36:25.015Z,15.76
2018-10-19T14:38:54.966Z,15.76
2018-10-19T14:41:24.923Z,15.81
2018-10-19T14:43:54.887Z,15.78
2018-10-19T14:46:24.717Z,15.82
2018-10-19T14:48:54.536Z,15.97
2018-10-19T14:51:24.655Z,15.76
2018-10-19T14:53:54.430Z,15.78
2018-10-19T14:56:24.287Z,15.78
2018-10-19T14:58:54.090Z,15.73
2018-10-19T15:01:24.079Z,15.83
2018-10-19T15:03:53.871Z,15.75
2018-10-19T15:06:23.609Z,15.70
2018-10-19T15:08:53.645Z,15.74
2018-10-19T15:11:23.907Z,15.66
2018-10-19T15:13:53.637Z,15.76
2018-10-19T15:16:23.421Z,15.78
2018-10-19T15:18:53.207Z,15.71
2018-10-19T15:21:22.973Z,15.70
2018-10-19T15:23:52.769Z,15.65
2018-10-19T15:26:22.812Z,15.65
2018-10-19T15:28:52.803Z,15.65
2018-10-19T15:31:22.710Z,15.53
2018-10-19T15:33:52.531Z,15.65
2018-10-19T15:36:22.375Z,15.58
2018-10-19T15:38:52.418Z,15.49
2018-10-19T15:41:22.323Z,15.46
2018-10-19T15:43:52.095Z,15.39
2018-10-19T15:46:21.960Z,15.43
2018-10-19T15:48:51.957Z,15.36
2018-10-19T15:51:21.715Z,15.23
2018-10-19T15:53:51.739Z,15.28
2018-10-19T15:56:21.561Z,15.20
2018-10-19T15:58:51.362Z,15.04
2018-10-19T16:01:21.189Z,15.01
2018-10-19T16:03:51.043Z,14.96
2018-10-19T16:06:20.849Z,14.91
2018-10-19T16:08:50.638Z,14.86
2018-10-19T16:11:20.439Z,14.82
2018-10-19T16:13:50.183Z,14.81
2018-10-19T16:16:20.007Z,14.72
2018-10-19T16:18:49.807Z,14.66
2018-10-19T16:21:19.573Z,14.60
2018-10-19T16:23:49.332Z,14.51
2018-10-19T16:26:19.151Z,14.40
2018-10-19T16:28:48.965Z,14.27
2018-10-19T16:31:18.765Z,14.21
2018-10-19T16:33:48.543Z,14.13
2018-10-19T16:36:18.374Z,14.09
2018-10-19T16:38:48.228Z,13.98
2018-10-19T16:41:18.057Z,14.12
2018-10-19T16:43:47.913Z,13.92
2018-10-19T16:46:18.098Z,13.83
2018-10-19T16:48:48.113Z,13.67
2018-10-19T16:51:17.931Z,13.63
2018-10-19T16:53:47.764Z,13.52
2018-10-19T16:56:17.839Z,13.41
2018-10-19T16:58:47.594Z,13.41
2018-10-19T17:01:17.407Z,13.45
2018-10-19T17:03:47.217Z,13.42
2018-10-19T17:06:17.146Z,13.39
2018-10-19T17:08:48.763Z,13.42
2018-10-19T17:11:18.624Z,13.45
2018-10-19T17:13:48.432Z,13.51
2018-10-19T17:16:18.320Z,13.43
2018-10-19T17:18:48.088Z,13.27
2018-10-19T17:21:18.064Z,13.33
2018-10-19T17:23:47.953Z,13.08
2018-10-19T17:26:17.900Z,12.97
2018-10-19T17:28:47.677Z,12.96
2018-10-19T17:31:17.558Z,12.98
2018-10-19T17:33:47.677Z,12.90
2018-10-19T17:36:17.335Z,12.84
2018-10-19T17:38:47.121Z,12.81
2018-10-19T17:41:16.907Z,12.78
2018-10-19T17:43:46.696Z,12.70
2018-10-19T17:46:16.821Z,12.70
2018-10-19T17:48:46.630Z,12.68
2018-10-19T17:51:16.567Z,12.55
2018-10-19T17:53:46.490Z,12.60
2018-10-19T17:56:16.505Z,12.65
2018-10-19T17:58:46.269Z,12.67
2018-10-19T18:01:16.395Z,12.63
2018-10-19T18:03:46.181Z,12.56
2018-10-19T18:06:16.123Z,12.51
2018-10-19T18:08:46.117Z,12.58
2018-10-19T18:11:15.956Z,12.67
2018-10-19T18:13:45.892Z,12.37
2018-10-19T18:16:15.643Z,12.20
2018-10-19T18:18:45.470Z,12.12
2018-10-19T18:21:15.271Z,12.01
2018-10-19T18:23:45.263Z,11.96
2018-10-19T18:26:15.461Z,11.93
2018-10-19T18:28:45.398Z,11.90
2018-10-19T18:31:15.214Z,11.89
2018-10-19T18:33:45.027Z,11.86
2018-10-19T18:36:14.824Z,11.79
2018-10-19T18:38:44.686Z,11.78
2018-10-19T18:41:14.859Z,11.75
2018-10-19T18:43:44.747Z,11.74
2018-10-19T18:46:14.553Z,11.74
2018-10-19T18:48:44.448Z,11.72
2018-10-19T18:51:14.280Z,11.74
2018-10-19T18:53:44.094Z,11.70
2018-10-19T18:56:13.892Z,11.67
2018-10-19T19:09:28.928Z,11.56
2018-10-19T19:11:58.784Z,11.58
2018-10-19T19:14:28.650Z,11.46
2018-10-19T19:16:58.737Z,11.34
2018-10-19T19:19:28.632Z,11.41
2018-10-19T19:21:58.442Z,11.45
2018-10-19T19:24:33.421Z,11.29
2018-10-19T19:27:03.584Z,11.24
2018-10-19T19:29:33.484Z,11.17
2018-10-19T19:32:03.394Z,11.12
2018-10-19T19:34:34.234Z,11.13
2018-10-19T19:37:04.070Z,11.10
2018-10-19T19:39:33.886Z,11.21
2018-10-19T19:43:33.071Z,11.25
2018-10-19T19:46:02.895Z,11.24
2018-10-19T19:48:37.897Z,11.28
2018-10-19T19:51:07.743Z,11.26
2018-10-19T19:53:37.535Z,11.14
2018-10-19T19:56:07.758Z,11.16
2018-10-19T19:58:37.859Z,11.13
2018-10-19T20:01:08.855Z,11.07
2018-10-19T20:03:38.970Z,11.07
2018-10-19T20:06:09.100Z,11.07
2018-10-19T20:08:39.121Z,11.06
2018-10-19T20:11:09.406Z,11.14
2018-10-19T20:13:39.417Z,11.07
2018-10-19T20:16:09.192Z,10.98
2018-10-19T20:18:38.949Z,10.86
2018-10-19T20:21:09.207Z,10.87
2018-10-19T20:23:39.110Z,10.82
2018-10-19T20:26:09.228Z,10.82
2018-10-19T20:28:39.592Z,10.74
2018-10-19T20:31:09.664Z,10.76
2018-10-19T20:35:09.682Z,10.80
2018-10-19T20:37:39.809Z,10.75
2018-10-19T20:40:09.663Z,10.76
2018-10-19T20:42:39.479Z,10.82
2018-10-19T20:45:09.387Z,10.95
2018-10-19T20:47:39.351Z,10.91
2018-10-19T20:50:10.833Z,10.47
2018-10-19T20:52:40.989Z,10.35
2018-10-19T20:55:11.102Z,10.33
2018-10-19T20:57:40.924Z,10.31
2018-10-19T21:00:11.472Z,10.32
2018-10-19T21:02:41.329Z,10.21
2018-10-19T21:05:12.298Z,10.27
2018-10-19T21:07:42.469Z,10.24
2018-10-19T21:10:13.650Z,10.28
2018-10-19T21:12:43.449Z,10.35
2018-10-19T21:15:14.462Z,10.28
2018-10-19T21:17:44.239Z,10.31
2018-10-19T21:20:14.153Z,10.25
2018-10-19T21:22:44.226Z,10.25
2018-10-19T21:25:14.057Z,10.27
2018-10-19T21:27:43.819Z,10.32
2018-10-19T21:30:14.012Z,10.40
2018-10-19T21:32:43.948Z,10.36
2018-10-19T21:35:14.165Z,10.41
2018-10-19T21:37:44.524Z,10.40
2018-10-19T21:40:14.430Z,10.33
2018-10-19T21:42:44.624Z,10.21
2018-10-19T21:45:14.564Z,10.14
2018-10-19T21:47:44.444Z,10.15
2018-10-19T21:50:14.469Z,10.14
2018-10-19T21:52:44.518Z,10.12
2018-10-19T21:55:14.456Z,10.07
2018-10-19T21:57:44.568Z,10.23
2018-10-19T22:00:14.568Z,10.30
2018-10-19T22:02:44.644Z,10.35
2018-10-19T22:05:14.644Z,10.41
2018-10-19T22:07:44.776Z,10.48
2018-10-19T22:10:15.034Z,10.45
2018-10-19T22:12:45.004Z,10.31
2018-10-19T22:15:15.931Z,10.32
2018-10-19T22:17:46.430Z,10.40
2018-10-19T22:20:16.412Z,10.44
2018-10-19T22:22:46.497Z,10.27
2018-10-19T22:25:17.019Z,10.51
2018-10-19T22:27:47.078Z,10.49
2018-10-19T22:30:17.034Z,10.49
2018-10-19T22:32:46.934Z,10.53
2018-10-19T22:35:17.307Z,10.63
2018-10-19T22:37:47.308Z,10.78
2018-10-19T22:40:17.202Z,10.90
2018-10-19T22:42:47.071Z,10.81
2018-10-19T22:45:16.985Z,10.73
2018-10-19T22:48:40.910Z,10.90
2018-10-19T22:51:10.829Z,11.00
2018-10-19T22:53:41.169Z,10.99
2018-10-19T22:56:11.049Z,11.01
2018-10-19T22:58:41.038Z,11.07
2018-10-19T23:01:11.154Z,11.04
2018-10-19T23:03:41.307Z,11.14
2018-10-19T23:06:12.616Z,11.06
2018-10-19T23:08:42.772Z,11.16
2018-10-19T23:11:13.460Z,11.16
2018-10-19T23:13:43.526Z,11.11
2018-10-19T23:16:13.434Z,11.25
2018-10-19T23:18:43.555Z,11.36
2018-10-19T23:21:13.678Z,11.33
2018-10-19T23:23:43.504Z,11.30
2018-10-19T23:26:14.254Z,11.21
2018-10-19T23:28:44.248Z,11.30
2018-10-19T23:31:14.244Z,11.34
2018-10-19T23:33:44.200Z,11.24
2018-10-19T23:36:14.071Z,11.21
2018-10-19T23:38:44.190Z,11.35
2018-10-19T23:41:14.442Z,11.29
2018-10-19T23:43:44.639Z,11.36
2018-10-19T23:46:14.808Z,11.42
2018-10-19T23:48:44.692Z,11.41
2018-10-19T23:51:14.710Z,11.25
2018-10-19T23:53:44.624Z,11.18
2018-10-19T23:56:14.504Z,11.18
2018-10-19T23:58:44.425Z,11.17
